Straumvik — LEYJ — position and weather

sailwx.info

Track history (hours):
 
Tides and Currents Weather Stations Pressure Air Temp Water Temp Dewpoint Dewpoint Depression Visibility Wind Speed Wind Dir Waves Ship Positions

Straumvik

Last reported at 2018-Apr-25 07:59 UTC. Time now 2018-Apr-25 08:23 UTC.
Position N 59°42' E 005°28'.

Length 50 m; draft 5 m.

Type: Ship. MMSI: 258260000.

Date/timePositionNaut miles runAvg speedWind from/ knotsBaromVisibWave heightAir tempDewpointWater temp
2018-Apr-25 07:59N 59°42' E 005°28'0 0.0
2018-Apr-25 07:30N 59°42' E 005°28'0 0.0
2018-Apr-25 07:00N 59°42' E 005°28'0 0.0
2018-Apr-25 06:30N 59°42' E 005°28'0 0.5
2018-Apr-25 06:00N 59°42' E 005°28'3 5.8
2018-Apr-25 05:29N 59°44' E 005°33'4 7.8
2018-Apr-25 04:59N 59°41' E 005°39'4 7.9
2018-Apr-25 04:29N 59°39' E 005°46'4 7.2
2018-Apr-25 04:00N 59°40' E 005°53'2 3.3
2018-Apr-25 03:29N 59°40' E 005°56'0 0.0
2018-Apr-25 03:00N 59°40' E 005°56'0 0.0
2018-Apr-25 02:30N 59°40' E 005°56'0 0.0
2018-Apr-25 02:01N 59°40' E 005°56'0 0.0
2018-Apr-25 01:29N 59°40' E 005°56'0 0.0
2018-Apr-25 01:00N 59°40' E 005°56'0 0.0
2018-Apr-25 00:30N 59°40' E 005°56'0 0.0
2018-Apr-25 00:00N 59°40' E 005°56'0 0.0
2018-Apr-24 23:30N 59°40' E 005°56'0 0.0
2018-Apr-24 23:01N 59°40' E 005°56'0 0.0
2018-Apr-24 22:30N 59°40' E 005°56'0 0.0
2018-Apr-24 22:00N 59°40' E 005°56'0 0.0
2018-Apr-24 21:29N 59°40' E 005°56'0 0.0
2018-Apr-24 21:01N 59°40' E 005°56'0 0.0
2018-Apr-24 20:30N 59°40' E 005°56'0 0.5
2018-Apr-24 20:00N 59°40' E 005°55'4 9.0
2018-Apr-24 19:30N 59°39' E 005°47'5 9.7
2018-Apr-24 19:00N 59°42' E 005°39'5 9.7
2018-Apr-24 18:30N 59°47' E 005°37'5 9.2
2018-Apr-24 18:00N 59°51' E 005°40'5 9.6
2018-Apr-24 17:30N 59°55' E 005°46'5 9.4
2018-Apr-24 17:00N 59°57' E 005°54'3 1.0
2018-Apr-24 13:34N 59°59' E 006°00'0 3.5
2018-Apr-24 13:29N 59°59' E 005°60'4 8.3
2018-Apr-24 13:00N 59°57' E 005°53'4 9.0
2018-Apr-24 12:30N 59°55' E 005°45'5 9.4
2018-Apr-24 11:59N 59°51' E 005°39'4 9.0
2018-Apr-24 11:30N 59°46' E 005°38'4 8.7
2018-Apr-24 11:00N 59°42' E 005°39'4 8.6
2018-Apr-24 10:30N 59°39' E 005°46'4 8.3
2018-Apr-24 10:00N 59°40' E 005°54'1 2.2
2018-Apr-24 09:30N 59°40' E 005°56'0 0.0
2018-Apr-24 09:00N 59°40' E 005°56'0 0.0
2018-Apr-24 08:30N 59°40' E 005°56'0 0.0
2018-Apr-24 07:58N 59°40' E 005°56'0 0.0
2018-Apr-24 07:30N 59°40' E 005°56'0 0.0
2018-Apr-24 07:00N 59°40' E 005°56'0 0.0
2018-Apr-24 06:30N 59°40' E 005°56'0 0.0
2018-Apr-24 05:59N 59°40' E 005°56'0 0.0
2018-Apr-24 05:29N 59°40' E 005°56'0 0.0
2018-Apr-24 05:00N 59°40' E 005°56'0 0.0
2018-Apr-24 04:30N 59°40' E 005°56'1 2.3
2018-Apr-24 03:59N 59°40' E 005°54'2 5.0
2018-Apr-24 03:30N 59°39' E 005°49'2 4.8
2018-Apr-24 03:00N 59°40' E 005°44'2 4.3
2018-Apr-24 02:30N 59°41' E 005°41'2 4.2
2018-Apr-24 01:59N 59°43' E 005°39'2 4.6
2018-Apr-24 01:30N 59°45' E 005°37'2 4.5
2018-Apr-24 01:00N 59°47' E 005°37'2 4.5
2018-Apr-24 00:30N 59°49' E 005°38'2 4.7
2018-Apr-24 00:00N 59°51' E 005°40'2 4.7
2018-Apr-23 23:30N 59°53' E 005°43'3 5.0
2018-Apr-23 22:59N 59°55' E 005°46'3 5.1
2018-Apr-23 22:29N 59°57' E 005°49'2 4.9
2018-Apr-23 22:00N 59°59' E 005°52'3 5.0
2018-Apr-23 21:29N 60°01' E 005°55'3 5.6
2018-Apr-23 21:00N 60°03' E 005°59'3 5.6
2018-Apr-23 20:30N 60°05' E 006°02'4 7.7
2018-Apr-23 20:00N 60°09' E 006°04'4 7.7
2018-Apr-23 19:30N 60°13' E 006°06'4 8.1
2018-Apr-23 19:00N 60°16' E 006°11'4 7.9
2018-Apr-23 18:30N 60°20' E 006°14'3 4.0
2018-Apr-23 17:44N 60°22' E 006°09'0 0.0
2018-Apr-23 17:26N 60°22' E 006°09'0 0.0
2018-Apr-23 16:59N 60°22' E 006°09'0 0.0
2018-Apr-23 16:28N 60°22' E 006°09'0 0.0
2018-Apr-23 16:00N 60°22' E 006°09'0 0.0
2018-Apr-23 15:30N 60°22' E 006°09'0 0.0
2018-Apr-23 15:00N 60°22' E 006°09'0 0.0
2018-Apr-23 14:30N 60°22' E 006°09'0 0.2
2018-Apr-23 14:00N 60°22' E 006°09'4 7.4
2018-Apr-23 13:30N 60°19' E 006°14'2 4.8
2018-Apr-23 12:59N 60°17' E 006°15'0 0.0
2018-Apr-23 12:06N 60°17' E 006°15'0 0.0
2018-Apr-23 12:00N 60°17' E 006°15'0 0.0
2018-Apr-23 11:29N 60°17' E 006°15'0 0.0
2018-Apr-23 11:00N 60°17' E 006°15'0 0.0
2018-Apr-23 10:29N 60°17' E 006°15'0 0.0
2018-Apr-23 10:00N 60°17' E 006°15'0 0.0
2018-Apr-23 09:30N 60°17' E 006°15'0 0.0
2018-Apr-23 09:00N 60°17' E 006°15'1 1.1
2018-Apr-23 08:30N 60°17' E 006°14'3 6.4
2018-Apr-23 08:01N 60°14' E 006°10'4 8.0
2018-Apr-23 07:30N 60°16' E 006°02'0 0.5
2018-Apr-23 07:00N 60°16' E 006°02'0 0.0
2018-Apr-23 06:30N 60°16' E 006°02'0 0.0
2018-Apr-23 06:00N 60°16' E 006°02'0 0.0
2018-Apr-23 05:30N 60°16' E 006°02'0 0.0
2018-Apr-23 04:59N 60°16' E 006°02'0 0.0
2018-Apr-23 04:30N 60°16' E 006°02'0 0.0
2018-Apr-23 03:59N 60°16' E 006°02'0 0.0
2018-Apr-23 03:30N 60°16' E 006°02'0 0.0
2018-Apr-23 03:00N 60°16' E 006°02'0 0.0
2018-Apr-23 02:30N 60°16' E 006°02'0 0.0
2018-Apr-23 02:00N 60°16' E 006°02'0 0.0
2018-Apr-23 01:30N 60°16' E 006°02'0 0.0
2018-Apr-23 00:59N 60°16' E 006°02'0 0.0
2018-Apr-23 00:30N 60°16' E 006°02'0 0.0
2018-Apr-23 00:00N 60°16' E 006°02'0 0.0
2018-Apr-22 23:30N 60°16' E 006°02'0 0.0
2018-Apr-22 23:00N 60°16' E 006°02'0 0.0
2018-Apr-22 22:30N 60°16' E 006°02'0 0.1
2018-Apr-22 22:00N 60°16' E 006°02'3 6.0
2018-Apr-22 21:30N 60°13' E 006°03'4 7.5
2018-Apr-22 21:00N 60°10' E 006°04'4 7.5
2018-Apr-22 20:29N 60°06' E 006°02'4 7.4
2018-Apr-22 20:00N 60°03' E 005°58'4 7.3
2018-Apr-22 19:28N 60°00' E 005°53'3 7.0
2018-Apr-22 18:59N 59°58' E 005°47'3 6.6
2018-Apr-22 18:30N 60°01' E 005°43'4 7.7
2018-Apr-22 18:00N 60°05' E 005°42'4 7.6
2018-Apr-22 17:29N 60°06' E 005°34'4 7.5
2018-Apr-22 16:59N 60°07' E 005°27'3 7.2
2018-Apr-22 16:30N 60°08' E 005°20'4 7.2
2018-Apr-22 15:59N 60°11' E 005°15'4 7.6
2018-Apr-22 15:30N 60°13' E 005°10'3 6.9
2018-Apr-22 15:00N 60°17' E 005°11'1 2.5
2018-Apr-22 14:28N 60°18' E 005°12'0 0.6
2018-Apr-22 13:59N 60°18' E 005°12'1 2.6
2018-Apr-22 13:30N 60°17' E 005°10'1 2.1
2018-Apr-22 13:00N 60°18' E 005°11'2 3.8
2018-Apr-22 12:30N 60°20' E 005°12'2 4.2
2018-Apr-22 12:00N 60°22' E 005°10'3 5.4
2018-Apr-22 11:30N 60°24' E 005°08'3 6.9
2018-Apr-22 11:00N 60°26' E 005°02'3 6.9
2018-Apr-22 10:30N 60°29' E 004°59'2 4.4
2018-Apr-22 09:59N 60°28' E 004°54'3 6.4
2018-Apr-22 09:30N 60°25' E 004°56'1 2.7
2018-Apr-22 09:00N 60°24' E 004°55'0 0.0
2018-Apr-22 08:30N 60°24' E 004°55'0 0.0
2018-Apr-22 08:00N 60°24' E 004°55'0 0.0
2018-Apr-22 07:30N 60°24' E 004°55'0 0.0
2018-Apr-22 07:00N 60°24' E 004°55'0 0.0
2018-Apr-22 06:30N 60°24' E 004°55'0 0.0
2018-Apr-22 06:00N 60°24' E 004°55'0 0.0
2018-Apr-22 05:30N 60°24' E 004°55'0 0.0
2018-Apr-22 05:00N 60°24' E 004°55'0 0.0
2018-Apr-22 04:30N 60°24' E 004°55'0 0.0
2018-Apr-22 04:00N 60°24' E 004°55'0 0.0
2018-Apr-22 03:30N 60°24' E 004°55'0 0.0
2018-Apr-22 03:00N 60°24' E 004°55'0 0.0
2018-Apr-22 02:30N 60°24' E 004°55'0 0.0
2018-Apr-22 02:00N 60°24' E 004°55'0 0.0
2018-Apr-22 01:30N 60°24' E 004°55'0 0.0
2018-Apr-22 01:00N 60°24' E 004°55'0 0.0
2018-Apr-22 00:30N 60°24' E 004°55'0 0.0
2018-Apr-22 00:00N 60°24' E 004°55'0 0.0
2018-Apr-21 23:30N 60°24' E 004°55'0 0.0
2018-Apr-21 23:00N 60°24' E 004°55'0 0.0
2018-Apr-21 22:30N 60°24' E 004°55'0 0.1
2018-Apr-21 22:00N 60°24' E 004°55'0 0.0
2018-Apr-21 21:30N 60°24' E 004°55'0 0.0
2018-Apr-21 21:00N 60°24' E 004°55'0 0.0
2018-Apr-21 20:30N 60°24' E 004°55'0 0.0
2018-Apr-21 20:00N 60°24' E 004°55'0 0.0
2018-Apr-21 19:30N 60°24' E 004°55'0 0.0
2018-Apr-21 19:00N 60°24' E 004°55'0 0.0
2018-Apr-21 18:30N 60°24' E 004°55'0 0.0
2018-Apr-21 18:00N 60°24' E 004°55'0 0.0
2018-Apr-21 17:30N 60°24' E 004°55'0 0.0
2018-Apr-21 17:00N 60°24' E 004°55'0 0.0
2018-Apr-21 16:30N 60°24' E 004°55'0 0.6
2018-Apr-21 16:00N 60°24' E 004°55'0 0.8
2018-Apr-21 15:30N 60°24' E 004°55'2 3.4
2018-Apr-21 14:59N 60°22' E 004°55'3 6.9
2018-Apr-21 14:30N 60°19' E 004°55'4 8.2
2018-Apr-21 14:00N 60°15' E 004°55'4 8.2
2018-Apr-21 13:30N 60°11' E 004°58'3 6.7
2018-Apr-21 13:00N 60°09' E 005°04'4 8.6
2018-Apr-21 12:30N 60°10' E 005°12'4 8.6
2018-Apr-21 12:00N 60°08' E 005°20'4 8.6
2018-Apr-21 11:30N 60°06' E 005°27'4 7.9
2018-Apr-21 10:59N 60°02' E 005°28'2 4.2
2018-Apr-21 10:30N 59°60' E 005°29'0 0.0
2018-Apr-21 10:00N 59°60' E 005°29'0 0.0
2018-Apr-21 09:30N 59°60' E 005°29'0 0.0
2018-Apr-21 09:00N 59°60' E 005°29'0 0.0
2018-Apr-21 08:30N 59°60' E 005°29'0 0.0
2018-Apr-21 08:00N 59°60' E 005°29'0 0.0
2018-Apr-21 07:30N 59°60' E 005°29'0 0.0
2018-Apr-21 07:00N 59°60' E 005°29'0 0.0
2018-Apr-21 06:27N 59°60' E 005°29'0 0.0
2018-Apr-21 06:00N 59°60' E 005°29'0 0.0
2018-Apr-21 05:30N 59°60' E 005°29'0 0.0
2018-Apr-21 05:00N 59°60' E 005°29'0 0.0
2018-Apr-21 04:30N 59°60' E 005°29'0 0.0
2018-Apr-21 03:57N 59°60' E 005°29'0 0.0
2018-Apr-21 03:30N 59°60' E 005°29'0 0.0
2018-Apr-21 03:00N 59°60' E 005°29'0 0.0
2018-Apr-21 02:30N 59°60' E 005°29'0 0.0
2018-Apr-21 02:00N 59°60' E 005°29'0 0.0
2018-Apr-21 01:30N 59°60' E 005°29'0 0.0
2018-Apr-21 01:00N 59°60' E 005°29'0 0.0
2018-Apr-21 00:30N 59°60' E 005°29'0 0.0
2018-Apr-21 00:00N 59°60' E 005°29'0 0.0
2018-Apr-20 23:30N 59°60' E 005°29'0 0.0
2018-Apr-20 23:00N 59°60' E 005°29'0 0.0
2018-Apr-20 22:30N 59°60' E 005°29'0 0.0
2018-Apr-20 22:00N 59°60' E 005°29'0 0.0
2018-Apr-20 21:24N 59°60' E 005°29'2 4.1
2018-Apr-20 21:00N 60°01' E 005°27'4 7.4
2018-Apr-20 20:30N 60°04' E 005°31'4 7.7
2018-Apr-20 20:00N 60°05' E 005°39'3 6.4
2018-Apr-20 19:29N 60°03' E 005°42'4 7.9
2018-Apr-20 19:00N 59°59' E 005°44'4 7.2
2018-Apr-20 18:30N 59°56' E 005°48'4 7.5
2018-Apr-20 17:58N 59°57' E 005°56'1 0.5
2018-Apr-20 16:24N 59°57' E 005°57'0 0.0
2018-Apr-20 15:41N 59°57' E 005°57'1 5.5
2018-Apr-20 15:30N 59°57' E 005°55'5 9.4
2018-Apr-20 14:59N 59°55' E 005°46'510.0
2018-Apr-20 14:30N 59°52' E 005°41'5 9.7
2018-Apr-20 14:00N 59°48' E 005°35'2 4.2
2018-Apr-20 13:25N 59°47' E 005°31'0 0.0
2018-Apr-20 12:55N 59°47' E 005°31'0 0.0
2018-Apr-20 12:28N 59°47' E 005°31'0 0.0
2018-Apr-20 11:58N 59°47' E 005°31'0 0.0
2018-Apr-20 11:25N 59°47' E 005°31'0 0.0
2018-Apr-20 10:58N 59°47' E 005°31'0 0.0
2018-Apr-20 10:28N 59°47' E 005°31'0 0.0
2018-Apr-20 09:58N 59°47' E 005°31'0 0.0
2018-Apr-20 09:28N 59°47' E 005°31'0 0.0
2018-Apr-20 08:58N 59°47' E 005°31'0 0.0
2018-Apr-20 08:25N 59°47' E 005°31'0 0.9
2018-Apr-20 08:00N 59°47' E 005°31'4 7.6
2018-Apr-20 07:30N 59°44' E 005°36'4 8.2
2018-Apr-20 07:00N 59°41' E 005°42'4 7.8
2018-Apr-20 06:30N 59°39' E 005°48'4 7.7
2018-Apr-20 06:00N 59°40' E 005°56'0 0.1
2018-Apr-20 05:29N 59°40' E 005°56'0 0.0
2018-Apr-20 04:59N 59°40' E 005°56'0 0.0
2018-Apr-20 04:29N 59°40' E 005°56'0 0.0
2018-Apr-20 03:59N 59°40' E 005°56'0 0.0
2018-Apr-20 03:29N 59°40' E 005°56'0 0.0
2018-Apr-20 02:59N 59°40' E 005°56'0 0.0
2018-Apr-20 02:29N 59°40' E 005°56'0 0.0
2018-Apr-20 01:59N 59°40' E 005°56'0 0.0
2018-Apr-20 01:26N 59°40' E 005°56'0 0.0
2018-Apr-20 00:59N 59°40' E 005°56'0 0.0
2018-Apr-20 00:29N 59°40' E 005°56'0 0.0
2018-Apr-19 23:59N 59°40' E 005°56'0 0.0
2018-Apr-19 23:29N 59°40' E 005°56'0 0.0
2018-Apr-19 22:59N 59°40' E 005°56'0 0.0
2018-Apr-19 22:29N 59°40' E 005°56'0 0.0
2018-Apr-19 21:59N 59°40' E 005°56'0 0.0
2018-Apr-19 21:30N 59°40' E 005°56'3 6.8
2018-Apr-19 21:00N 59°39' E 005°50'4 7.8
2018-Apr-19 20:30N 59°40' E 005°42'5 8.5
2018-Apr-19 19:59N 59°44' E 005°37'4 8.4
2018-Apr-19 19:30N 59°48' E 005°37'4 7.4
2018-Apr-19 19:00N 59°52' E 005°40'4 7.7
2018-Apr-19 18:30N 59°55' E 005°44'4 7.8
2018-Apr-19 18:00N 59°58' E 005°49'4 8.5
2018-Apr-19 17:30N 60°01' E 005°55'4 8.8
2018-Apr-19 16:59N 60°05' E 006°00'4 8.9
2018-Apr-19 16:30N 60°08' E 006°04'4 8.8
2018-Apr-19 16:00N 60°13' E 006°06'5 9.0
2018-Apr-19 15:30N 60°16' E 006°12'5 9.1
2018-Apr-19 15:00N 60°20' E 006°17'4 9.0
2018-Apr-19 14:30N 60°23' E 006°23'5 9.3
2018-Apr-19 13:59N 60°26' E 006°31'4 8.2
2018-Apr-19 13:30N 60°25' E 006°39'4 8.4
2018-Apr-19 13:00N 60°21' E 006°39'5 9.2
2018-Apr-19 12:30N 60°17' E 006°37'5 9.1
2018-Apr-19 12:00N 60°12' E 006°35'5 9.3
2018-Apr-19 11:30N 60°08' E 006°33'3 6.5
2018-Apr-19 11:00N 60°04' E 006°33'0 0.0
2018-Apr-19 10:28N 60°04' E 006°33'0 0.0
2018-Apr-19 09:58N 60°04' E 006°33'0 0.0
2018-Apr-19 09:28N 60°04' E 006°33'0 0.0
2018-Apr-19 08:58N 60°04' E 006°33'0 0.0
2018-Apr-19 08:28N 60°04' E 006°33'0 0.0
2018-Apr-19 07:58N 60°04' E 006°33'0 0.0
2018-Apr-19 07:28N 60°04' E 006°33'0 0.0
2018-Apr-19 06:58N 60°04' E 006°33'0 0.0
2018-Apr-19 06:28N 60°04' E 006°33'0 0.0
2018-Apr-19 05:58N 60°04' E 006°33'0 0.0
2018-Apr-19 05:28N 60°04' E 006°33'0 0.0
2018-Apr-19 04:59N 60°04' E 006°33'1 2.0
2018-Apr-19 04:30N 60°05' E 006°33'2 4.6
2018-Apr-19 04:00N 60°08' E 006°33'2 4.2
2018-Apr-19 03:30N 60°10' E 006°34'2 4.2
2018-Apr-19 03:00N 60°12' E 006°35'2 4.2
2018-Apr-19 02:30N 60°14' E 006°35'2 3.9
2018-Apr-19 02:00N 60°16' E 006°36'2 3.9
2018-Apr-19 01:30N 60°18' E 006°37'2 4.0
2018-Apr-19 00:59N 60°20' E 006°38'2 3.9
2018-Apr-19 00:30N 60°21' E 006°39'2 3.9
2018-Apr-19 00:00N 60°23' E 006°41'2 4.2
2018-Apr-18 23:30N 60°25' E 006°43'2 4.2
2018-Apr-18 22:59N 60°27' E 006°45'2 4.5
2018-Apr-18 22:30N 60°28' E 006°49'2 4.3
2018-Apr-18 22:00N 60°29' E 006°53'2 4.4
2018-Apr-18 21:30N 60°29' E 006°57'2 4.3
2018-Apr-18 21:00N 60°29' E 007°02'2 0.5
2018-Apr-18 17:10N 60°29' E 007°06'2 8.7
2018-Apr-18 17:00N 60°29' E 007°03'5 9.1
2018-Apr-18 16:30N 60°29' E 006°53'4 8.7
2018-Apr-18 15:59N 60°27' E 006°46'4 9.1
2018-Apr-18 15:30N 60°23' E 006°41'4 8.9
2018-Apr-18 15:00N 60°19' E 006°38'4 8.7
2018-Apr-18 14:30N 60°15' E 006°36'4 8.8
2018-Apr-18 14:00N 60°10' E 006°34'4 8.6
2018-Apr-18 13:29N 60°06' E 006°32'0 0.1
2018-Apr-18 13:00N 60°06' E 006°32'0 0.0
2018-Apr-18 12:30N 60°06' E 006°32'0 0.0
2018-Apr-18 12:00N 60°06' E 006°32'0 0.0
2018-Apr-18 11:30N 60°06' E 006°32'0 0.0
2018-Apr-18 11:00N 60°06' E 006°32'0 0.0
2018-Apr-18 10:30N 60°06' E 006°32'0 0.0
2018-Apr-18 10:00N 60°06' E 006°32'0 0.0
2018-Apr-18 09:30N 60°06' E 006°32'0 0.0
2018-Apr-18 09:00N 60°06' E 006°32'0 0.0
2018-Apr-18 08:30N 60°06' E 006°32'0 0.0
2018-Apr-18 08:00N 60°06' E 006°32'0 0.0
2018-Apr-18 07:30N 60°06' E 006°32'0 0.0
2018-Apr-18 07:00N 60°06' E 006°32'2 4.6
2018-Apr-18 06:29N 60°08' E 006°33'4 7.7
2018-Apr-18 06:00N 60°12' E 006°35'4 7.7
2018-Apr-18 05:29N 60°16' E 006°36'4 7.7
2018-Apr-18 05:00N 60°19' E 006°38'4 7.6
2018-Apr-18 04:30N 60°23' E 006°40'3 6.7
2018-Apr-18 04:00N 60°26' E 006°37'3 7.0
2018-Apr-18 03:31N 60°25' E 006°30'4 7.8
2018-Apr-18 03:00N 60°23' E 006°23'4 7.7
2018-Apr-18 02:28N 60°20' E 006°17'4 7.7
2018-Apr-18 02:01N 60°18' E 006°13'4 7.7
2018-Apr-18 01:30N 60°14' E 006°09'4 7.5
2018-Apr-18 01:00N 60°11' E 006°05'4 7.9
2018-Apr-18 00:30N 60°07' E 006°04'4 7.8
2018-Apr-18 00:00N 60°04' E 005°60'4 8.2
2018-Apr-17 23:30N 60°00' E 005°55'4 8.4
2018-Apr-17 22:59N 59°57' E 005°49'4 8.8
2018-Apr-17 22:30N 59°54' E 005°44'5 8.9
2018-Apr-17 22:00N 59°50' E 005°39'4 8.7
2018-Apr-17 21:29N 59°46' E 005°34'4 9.3
2018-Apr-17 21:00N 59°43' E 005°28'5 9.1
2018-Apr-17 20:30N 59°40' E 005°22'5 9.4
2018-Apr-17 20:00N 59°36' E 005°17'4 9.1
2018-Apr-17 19:31N 59°32' E 005°13'4 8.8
2018-Apr-17 19:00N 59°27' E 005°14'4 8.2
2018-Apr-17 18:30N 59°23' E 005°17'4 8.8
2018-Apr-17 18:00N 59°19' E 005°20'4 8.5
2018-Apr-17 17:30N 59°15' E 005°21'3 6.6
2018-Apr-17 16:59N 59°14' E 005°27'4 7.4
2018-Apr-17 16:30N 59°11' E 005°32'4 7.6
2018-Apr-17 16:01N 59°10' E 005°38'4 7.6
2018-Apr-17 15:30N 59°08' E 005°45'4 7.4
2018-Apr-17 15:00N 59°07' E 005°52'3 6.2
2018-Apr-17 14:30N 59°07' E 005°58'4 7.5
2018-Apr-17 14:00N 59°08' E 006°05'3 5.3
2018-Apr-17 13:30N 59°09' E 006°10'0 0.0
2018-Apr-17 13:00N 59°09' E 006°10'0 0.0
2018-Apr-17 12:26N 59°09' E 006°10'0 0.0
2018-Apr-17 12:00N 59°09' E 006°10'3 5.6
2018-Apr-17 11:30N 59°08' E 006°05'5 9.2
2018-Apr-17 11:00N 59°07' E 005°56'4 7.3
2018-Apr-17 10:30N 59°08' E 005°49'4 8.8
2018-Apr-17 10:00N 59°09' E 005°41'4 8.7
2018-Apr-17 09:30N 59°11' E 005°33'4 8.8
2018-Apr-17 09:00N 59°14' E 005°27'4 7.3
2018-Apr-17 08:30N 59°15' E 005°20'4 8.7
2018-Apr-17 08:00N 59°19' E 005°20'2 2.8
2018-Apr-17 07:28N 59°20' E 005°18'0 0.0
2018-Apr-17 06:58N 59°20' E 005°18'0 0.0
2018-Apr-17 06:28N 59°20' E 005°18'0 0.0
2018-Apr-17 05:58N 59°20' E 005°18'0 0.0
2018-Apr-17 05:28N 59°20' E 005°18'0 0.0
2018-Apr-17 04:58N 59°20' E 005°18'0 0.0
2018-Apr-17 04:28N 59°20' E 005°18'0 0.0
2018-Apr-17 03:58N 59°20' E 005°18'0 0.0
2018-Apr-17 03:28N 59°20' E 005°18'0 0.5
2018-Apr-17 03:00N 59°20' E 005°18'2 3.5
2018-Apr-17 02:30N 59°22' E 005°18'4 8.0
2018-Apr-17 02:00N 59°25' E 005°14'4 7.6
2018-Apr-17 01:29N 59°29' E 005°13'3 7.4
2018-Apr-17 01:00N 59°33' E 005°14'3 6.8
2018-Apr-17 00:30N 59°36' E 005°17'3 6.6
2018-Apr-17 00:00N 59°39' E 005°20'3 6.6
2018-Apr-16 23:30N 59°42' E 005°24'4 7.8
2018-Apr-16 23:00N 59°45' E 005°22'4 7.6
2018-Apr-16 22:30N 59°49' E 005°18'4 7.8
2018-Apr-16 22:00N 59°52' E 005°14'4 8.3
2018-Apr-16 21:30N 59°56' E 005°11'4 7.2
2018-Apr-16 21:00N 59°59' E 005°13'4 7.6
2018-Apr-16 20:30N 60°03' E 005°10'4 7.7
2018-Apr-16 20:00N 60°06' E 005°11'4 7.7
2018-Apr-16 19:30N 60°10' E 005°11'4 7.6
2018-Apr-16 19:00N 60°14' E 005°10'4 7.2
2018-Apr-16 18:30N 60°17' E 005°09'3 5.9
2018-Apr-16 18:00N 60°20' E 005°10'3 6.2
2018-Apr-16 17:29N 60°23' E 005°12'3 6.9
2018-Apr-16 16:59N 60°26' E 005°15'4 7.6
2018-Apr-16 16:30N 60°30' E 005°12'4 7.9
2018-Apr-16 16:00N 60°32' E 005°05'3 6.4
2018-Apr-16 15:30N 60°33' E 004°59'0 0.0
2018-Apr-16 15:00N 60°33' E 004°59'0 0.0
2018-Apr-16 14:30N 60°33' E 004°59'0 0.0
2018-Apr-16 14:00N 60°33' E 004°59'0 0.6
2018-Apr-16 13:30N 60°33' E 004°60'5 9.3
2018-Apr-16 13:00N 60°31' E 005°08'4 7.8
2018-Apr-16 12:30N 60°31' E 005°16'3 5.3
2018-Apr-16 11:56N 60°33' E 005°21'0 0.0
2018-Apr-16 11:29N 60°33' E 005°21'0 0.0
2018-Apr-16 10:58N 60°33' E 005°21'2 4.4
2018-Apr-16 10:30N 60°32' E 005°17'3 6.6
2018-Apr-16 10:00N 60°34' E 005°23'5 9.3
2018-Apr-16 09:30N 60°37' E 005°30'4 7.9
2018-Apr-16 08:59N 60°40' E 005°34'2 3.5
2018-Apr-16 08:30N 60°42' E 005°33'0 0.0
2018-Apr-16 07:45N 60°42' E 005°33'0 0.0
2018-Apr-16 07:30N 60°42' E 005°33'0 0.0
2018-Apr-16 07:00N 60°42' E 005°33'0 0.0
2018-Apr-16 06:30N 60°42' E 005°33'0 0.0
2018-Apr-16 05:57N 60°42' E 005°33'0 0.0
2018-Apr-16 04:54N 60°42' E 005°33'0 0.0
2018-Apr-16 03:24N 60°42' E 005°33'0 0.0
2018-Apr-16 02:36N 60°42' E 005°33'0 0.0
2018-Apr-16 02:09N 60°42' E 005°33'0 0.0
2018-Apr-16 01:54N 60°42' E 005°33'0 0.0
2018-Apr-16 01:03N 60°42' E 005°33'0 0.0
2018-Apr-16 00:51N 60°42' E 005°33'0 0.0
2018-Apr-16 00:21N 60°42' E 005°33'0 0.0
2018-Apr-15 23:42N 60°42' E 005°33'0 0.0
2018-Apr-15 23:24N 60°42' E 005°33'0 0.0
2018-Apr-15 22:42N 60°42' E 005°33'0 0.0
2018-Apr-15 22:27N 60°42' E 005°33'0 0.0
2018-Apr-15 22:00N 60°42' E 005°33'0 0.0
2018-Apr-15 21:18N 60°42' E 005°33'0 0.0
2018-Apr-15 21:00N 60°42' E 005°33'0 0.0
2018-Apr-15 19:21N 60°42' E 005°33'0 0.0
2018-Apr-15 18:51N 60°42' E 005°33'0 0.0
2018-Apr-15 18:09N 60°42' E 005°33'0 0.0
2018-Apr-15 18:00N 60°42' E 005°33'0 0.0
2018-Apr-15 17:30N 60°42' E 005°33'0 0.0
2018-Apr-15 17:00N 60°42' E 005°33'3 6.4
2018-Apr-15 16:29N 60°39' E 005°35'4 7.2
2018-Apr-15 16:00N 60°37' E 005°29'4 7.7
2018-Apr-15 15:30N 60°34' E 005°24'2 2.9
2018-Apr-15 14:58N 60°33' E 005°21'0 0.8
2018-Apr-15 14:30N 60°33' E 005°22'2 3.7
2018-Apr-15 13:56N 60°35' E 005°22'0 0.0
2018-Apr-15 13:29N 60°35' E 005°22'0 0.0
2018-Apr-15 12:56N 60°35' E 005°22'1 1.6
2018-Apr-15 12:30N 60°35' E 005°23'3 6.4
2018-Apr-15 12:00N 60°32' E 005°19'4 7.2
2018-Apr-15 11:30N 60°29' E 005°15'4 7.8
2018-Apr-15 11:00N 60°25' E 005°16'3 6.9
2018-Apr-15 10:30N 60°23' E 005°11'3 6.4
2018-Apr-15 10:00N 60°20' E 005°12'4 7.8
2018-Apr-15 09:30N 60°16' E 005°11'4 7.2
2018-Apr-15 09:00N 60°12' E 005°12'4 8.1
2018-Apr-15 08:30N 60°09' E 005°16'4 8.0
2018-Apr-15 08:00N 60°05' E 005°19'  
Track history (hours):
 
Tides and Currents Weather Stations Pressure Air Temp Water Temp Dewpoint Dewpoint Depression Visibility Wind Speed Wind Dir Waves Ship Positions

Straumvik

Last reported at 2018-Apr-25 07:59 UTC. Time now 2018-Apr-25 08:23 UTC.
Position N 59°42' E 005°28'.

Length 50 m; draft 5 m.

Type: Ship. MMSI: 258260000.

Date/timePositionNaut miles runAvg speedWind from/ knotsBaromVisibWave heightAir tempDewpointWater temp
2018-Apr-25 07:59N 59°42' E 005°28'0 0.0
2018-Apr-25 07:30N 59°42' E 005°28'0 0.0
2018-Apr-25 07:00N 59°42' E 005°28'0 0.0
2018-Apr-25 06:30N 59°42' E 005°28'0 0.5
2018-Apr-25 06:00N 59°42' E 005°28'3 5.8
2018-Apr-25 05:29N 59°44' E 005°33'4 7.8
2018-Apr-25 04:59N 59°41' E 005°39'4 7.9
2018-Apr-25 04:29N 59°39' E 005°46'4 7.2
2018-Apr-25 04:00N 59°40' E 005°53'2 3.3
2018-Apr-25 03:29N 59°40' E 005°56'0 0.0
2018-Apr-25 03:00N 59°40' E 005°56'0 0.0
2018-Apr-25 02:30N 59°40' E 005°56'0 0.0
2018-Apr-25 02:01N 59°40' E 005°56'0 0.0
2018-Apr-25 01:29N 59°40' E 005°56'0 0.0
2018-Apr-25 01:00N 59°40' E 005°56'0 0.0
2018-Apr-25 00:30N 59°40' E 005°56'0 0.0
2018-Apr-25 00:00N 59°40' E 005°56'0 0.0
2018-Apr-24 23:30N 59°40' E 005°56'0 0.0
2018-Apr-24 23:01N 59°40' E 005°56'0 0.0
2018-Apr-24 22:30N 59°40' E 005°56'0 0.0
2018-Apr-24 22:00N 59°40' E 005°56'0 0.0
2018-Apr-24 21:29N 59°40' E 005°56'0 0.0
2018-Apr-24 21:01N 59°40' E 005°56'0 0.0
2018-Apr-24 20:30N 59°40' E 005°56'0 0.5
2018-Apr-24 20:00N 59°40' E 005°55'4 9.0
2018-Apr-24 19:30N 59°39' E 005°47'5 9.7
2018-Apr-24 19:00N 59°42' E 005°39'5 9.7
2018-Apr-24 18:30N 59°47' E 005°37'5 9.2
2018-Apr-24 18:00N 59°51' E 005°40'5 9.6
2018-Apr-24 17:30N 59°55' E 005°46'5 9.4
2018-Apr-24 17:00N 59°57' E 005°54'3 1.0
2018-Apr-24 13:34N 59°59' E 006°00'0 3.5
2018-Apr-24 13:29N 59°59' E 005°60'4 8.3
2018-Apr-24 13:00N 59°57' E 005°53'4 9.0
2018-Apr-24 12:30N 59°55' E 005°45'5 9.4
2018-Apr-24 11:59N 59°51' E 005°39'4 9.0
2018-Apr-24 11:30N 59°46' E 005°38'4 8.7
2018-Apr-24 11:00N 59°42' E 005°39'4 8.6
2018-Apr-24 10:30N 59°39' E 005°46'4 8.3
2018-Apr-24 10:00N 59°40' E 005°54'1 2.2
2018-Apr-24 09:30N 59°40' E 005°56'0 0.0
2018-Apr-24 09:00N 59°40' E 005°56'0 0.0
2018-Apr-24 08:30N 59°40' E 005°56'0 0.0
2018-Apr-24 07:58N 59°40' E 005°56'0 0.0
2018-Apr-24 07:30N 59°40' E 005°56'0 0.0
2018-Apr-24 07:00N 59°40' E 005°56'0 0.0
2018-Apr-24 06:30N 59°40' E 005°56'0 0.0
2018-Apr-24 05:59N 59°40' E 005°56'0 0.0
2018-Apr-24 05:29N 59°40' E 005°56'0 0.0
2018-Apr-24 05:00N 59°40' E 005°56'0 0.0
2018-Apr-24 04:30N 59°40' E 005°56'1 2.3
2018-Apr-24 03:59N 59°40' E 005°54'2 5.0
2018-Apr-24 03:30N 59°39' E 005°49'2 4.8
2018-Apr-24 03:00N 59°40' E 005°44'2 4.3
2018-Apr-24 02:30N 59°41' E 005°41'2 4.2
2018-Apr-24 01:59N 59°43' E 005°39'2 4.6
2018-Apr-24 01:30N 59°45' E 005°37'2 4.5
2018-Apr-24 01:00N 59°47' E 005°37'2 4.5
2018-Apr-24 00:30N 59°49' E 005°38'2 4.7
2018-Apr-24 00:00N 59°51' E 005°40'2 4.7
2018-Apr-23 23:30N 59°53' E 005°43'3 5.0
2018-Apr-23 22:59N 59°55' E 005°46'3 5.1
2018-Apr-23 22:29N 59°57' E 005°49'2 4.9
2018-Apr-23 22:00N 59°59' E 005°52'3 5.0
2018-Apr-23 21:29N 60°01' E 005°55'3 5.6
2018-Apr-23 21:00N 60°03' E 005°59'3 5.6
2018-Apr-23 20:30N 60°05' E 006°02'4 7.7
2018-Apr-23 20:00N 60°09' E 006°04'4 7.7
2018-Apr-23 19:30N 60°13' E 006°06'4 8.1
2018-Apr-23 19:00N 60°16' E 006°11'4 7.9
2018-Apr-23 18:30N 60°20' E 006°14'3 4.0
2018-Apr-23 17:44N 60°22' E 006°09'0 0.0
2018-Apr-23 17:26N 60°22' E 006°09'0 0.0
2018-Apr-23 16:59N 60°22' E 006°09'0 0.0
2018-Apr-23 16:28N 60°22' E 006°09'0 0.0
2018-Apr-23 16:00N 60°22' E 006°09'0 0.0
2018-Apr-23 15:30N 60°22' E 006°09'0 0.0
2018-Apr-23 15:00N 60°22' E 006°09'0 0.0
2018-Apr-23 14:30N 60°22' E 006°09'0 0.2
2018-Apr-23 14:00N 60°22' E 006°09'4 7.4
2018-Apr-23 13:30N 60°19' E 006°14'2 4.8
2018-Apr-23 12:59N 60°17' E 006°15'0 0.0
2018-Apr-23 12:06N 60°17' E 006°15'0 0.0
2018-Apr-23 12:00N 60°17' E 006°15'0 0.0
2018-Apr-23 11:29N 60°17' E 006°15'0 0.0
2018-Apr-23 11:00N 60°17' E 006°15'0 0.0
2018-Apr-23 10:29N 60°17' E 006°15'0 0.0
2018-Apr-23 10:00N 60°17' E 006°15'0 0.0
2018-Apr-23 09:30N 60°17' E 006°15'0 0.0
2018-Apr-23 09:00N 60°17' E 006°15'1 1.1
2018-Apr-23 08:30N 60°17' E 006°14'3 6.4
2018-Apr-23 08:01N 60°14' E 006°10'4 8.0
2018-Apr-23 07:30N 60°16' E 006°02'0 0.5
2018-Apr-23 07:00N 60°16' E 006°02'0 0.0
2018-Apr-23 06:30N 60°16' E 006°02'0 0.0
2018-Apr-23 06:00N 60°16' E 006°02'0 0.0
2018-Apr-23 05:30N 60°16' E 006°02'0 0.0
2018-Apr-23 04:59N 60°16' E 006°02'0 0.0
2018-Apr-23 04:30N 60°16' E 006°02'0 0.0
2018-Apr-23 03:59N 60°16' E 006°02'0 0.0
2018-Apr-23 03:30N 60°16' E 006°02'0 0.0
2018-Apr-23 03:00N 60°16' E 006°02'0 0.0
2018-Apr-23 02:30N 60°16' E 006°02'0 0.0
2018-Apr-23 02:00N 60°16' E 006°02'0 0.0
2018-Apr-23 01:30N 60°16' E 006°02'0 0.0
2018-Apr-23 00:59N 60°16' E 006°02'0 0.0
2018-Apr-23 00:30N 60°16' E 006°02'0 0.0
2018-Apr-23 00:00N 60°16' E 006°02'0 0.0
2018-Apr-22 23:30N 60°16' E 006°02'0 0.0
2018-Apr-22 23:00N 60°16' E 006°02'0 0.0
2018-Apr-22 22:30N 60°16' E 006°02'0 0.1
2018-Apr-22 22:00N 60°16' E 006°02'3 6.0
2018-Apr-22 21:30N 60°13' E 006°03'4 7.5
2018-Apr-22 21:00N 60°10' E 006°04'4 7.5
2018-Apr-22 20:29N 60°06' E 006°02'4 7.4
2018-Apr-22 20:00N 60°03' E 005°58'4 7.3
2018-Apr-22 19:28N 60°00' E 005°53'3 7.0
2018-Apr-22 18:59N 59°58' E 005°47'3 6.6
2018-Apr-22 18:30N 60°01' E 005°43'4 7.7
2018-Apr-22 18:00N 60°05' E 005°42'4 7.6
2018-Apr-22 17:29N 60°06' E 005°34'4 7.5
2018-Apr-22 16:59N 60°07' E 005°27'3 7.2
2018-Apr-22 16:30N 60°08' E 005°20'4 7.2
2018-Apr-22 15:59N 60°11' E 005°15'4 7.6
2018-Apr-22 15:30N 60°13' E 005°10'3 6.9
2018-Apr-22 15:00N 60°17' E 005°11'1 2.5
2018-Apr-22 14:28N 60°18' E 005°12'0 0.6
2018-Apr-22 13:59N 60°18' E 005°12'1 2.6
2018-Apr-22 13:30N 60°17' E 005°10'1 2.1
2018-Apr-22 13:00N 60°18' E 005°11'2 3.8
2018-Apr-22 12:30N 60°20' E 005°12'2 4.2
2018-Apr-22 12:00N 60°22' E 005°10'3 5.4
2018-Apr-22 11:30N 60°24' E 005°08'3 6.9
2018-Apr-22 11:00N 60°26' E 005°02'3 6.9
2018-Apr-22 10:30N 60°29' E 004°59'2 4.4
2018-Apr-22 09:59N 60°28' E 004°54'3 6.4
2018-Apr-22 09:30N 60°25' E 004°56'1 2.7
2018-Apr-22 09:00N 60°24' E 004°55'0 0.0
2018-Apr-22 08:30N 60°24' E 004°55'0 0.0
2018-Apr-22 08:00N 60°24' E 004°55'0 0.0
2018-Apr-22 07:30N 60°24' E 004°55'0 0.0
2018-Apr-22 07:00N 60°24' E 004°55'0 0.0
2018-Apr-22 06:30N 60°24' E 004°55'0 0.0
2018-Apr-22 06:00N 60°24' E 004°55'0 0.0
2018-Apr-22 05:30N 60°24' E 004°55'0 0.0
2018-Apr-22 05:00N 60°24' E 004°55'0 0.0
2018-Apr-22 04:30N 60°24' E 004°55'0 0.0
2018-Apr-22 04:00N 60°24' E 004°55'0 0.0
2018-Apr-22 03:30N 60°24' E 004°55'0 0.0
2018-Apr-22 03:00N 60°24' E 004°55'0 0.0
2018-Apr-22 02:30N 60°24' E 004°55'0 0.0
2018-Apr-22 02:00N 60°24' E 004°55'0 0.0
2018-Apr-22 01:30N 60°24' E 004°55'0 0.0
2018-Apr-22 01:00N 60°24' E 004°55'0 0.0
2018-Apr-22 00:30N 60°24' E 004°55'0 0.0
2018-Apr-22 00:00N 60°24' E 004°55'0 0.0
2018-Apr-21 23:30N 60°24' E 004°55'0 0.0
2018-Apr-21 23:00N 60°24' E 004°55'0 0.0
2018-Apr-21 22:30N 60°24' E 004°55'0 0.1
2018-Apr-21 22:00N 60°24' E 004°55'0 0.0
2018-Apr-21 21:30N 60°24' E 004°55'0 0.0
2018-Apr-21 21:00N 60°24' E 004°55'0 0.0
2018-Apr-21 20:30N 60°24' E 004°55'0 0.0
2018-Apr-21 20:00N 60°24' E 004°55'0 0.0
2018-Apr-21 19:30N 60°24' E 004°55'0 0.0
2018-Apr-21 19:00N 60°24' E 004°55'0 0.0
2018-Apr-21 18:30N 60°24' E 004°55'0 0.0
2018-Apr-21 18:00N 60°24' E 004°55'0 0.0
2018-Apr-21 17:30N 60°24' E 004°55'0 0.0
2018-Apr-21 17:00N 60°24' E 004°55'0 0.0
2018-Apr-21 16:30N 60°24' E 004°55'0 0.6
2018-Apr-21 16:00N 60°24' E 004°55'0 0.8
2018-Apr-21 15:30N 60°24' E 004°55'2 3.4
2018-Apr-21 14:59N 60°22' E 004°55'3 6.9
2018-Apr-21 14:30N 60°19' E 004°55'4 8.2
2018-Apr-21 14:00N 60°15' E 004°55'4 8.2
2018-Apr-21 13:30N 60°11' E 004°58'3 6.7
2018-Apr-21 13:00N 60°09' E 005°04'4 8.6
2018-Apr-21 12:30N 60°10' E 005°12'4 8.6
2018-Apr-21 12:00N 60°08' E 005°20'4 8.6
2018-Apr-21 11:30N 60°06' E 005°27'4 7.9
2018-Apr-21 10:59N 60°02' E 005°28'2 4.2
2018-Apr-21 10:30N 59°60' E 005°29'0 0.0
2018-Apr-21 10:00N 59°60' E 005°29'0 0.0
2018-Apr-21 09:30N 59°60' E 005°29'0 0.0
2018-Apr-21 09:00N 59°60' E 005°29'0 0.0
2018-Apr-21 08:30N 59°60' E 005°29'0 0.0
2018-Apr-21 08:00N 59°60' E 005°29'0 0.0
2018-Apr-21 07:30N 59°60' E 005°29'0 0.0
2018-Apr-21 07:00N 59°60' E 005°29'0 0.0
2018-Apr-21 06:27N 59°60' E 005°29'0 0.0
2018-Apr-21 06:00N 59°60' E 005°29'0 0.0
2018-Apr-21 05:30N 59°60' E 005°29'0 0.0
2018-Apr-21 05:00N 59°60' E 005°29'0 0.0
2018-Apr-21 04:30N 59°60' E 005°29'0 0.0
2018-Apr-21 03:57N 59°60' E 005°29'0 0.0
2018-Apr-21 03:30N 59°60' E 005°29'0 0.0
2018-Apr-21 03:00N 59°60' E 005°29'0 0.0
2018-Apr-21 02:30N 59°60' E 005°29'0 0.0
2018-Apr-21 02:00N 59°60' E 005°29'0 0.0
2018-Apr-21 01:30N 59°60' E 005°29'0 0.0
2018-Apr-21 01:00N 59°60' E 005°29'0 0.0
2018-Apr-21 00:30N 59°60' E 005°29'0 0.0
2018-Apr-21 00:00N 59°60' E 005°29'0 0.0
2018-Apr-20 23:30N 59°60' E 005°29'0 0.0
2018-Apr-20 23:00N 59°60' E 005°29'0 0.0
2018-Apr-20 22:30N 59°60' E 005°29'0 0.0
2018-Apr-20 22:00N 59°60' E 005°29'0 0.0
2018-Apr-20 21:24N 59°60' E 005°29'2 4.1
2018-Apr-20 21:00N 60°01' E 005°27'4 7.4
2018-Apr-20 20:30N 60°04' E 005°31'4 7.7
2018-Apr-20 20:00N 60°05' E 005°39'3 6.4
2018-Apr-20 19:29N 60°03' E 005°42'4 7.9
2018-Apr-20 19:00N 59°59' E 005°44'4 7.2
2018-Apr-20 18:30N 59°56' E 005°48'4 7.5
2018-Apr-20 17:58N 59°57' E 005°56'1 0.5
2018-Apr-20 16:24N 59°57' E 005°57'0 0.0
2018-Apr-20 15:41N 59°57' E 005°57'1 5.5
2018-Apr-20 15:30N 59°57' E 005°55'5 9.4
2018-Apr-20 14:59N 59°55' E 005°46'510.0
2018-Apr-20 14:30N 59°52' E 005°41'5 9.7
2018-Apr-20 14:00N 59°48' E 005°35'2 4.2
2018-Apr-20 13:25N 59°47' E 005°31'0 0.0
2018-Apr-20 12:55N 59°47' E 005°31'0 0.0
2018-Apr-20 12:28N 59°47' E 005°31'0 0.0
2018-Apr-20 11:58N 59°47' E 005°31'0 0.0
2018-Apr-20 11:25N 59°47' E 005°31'0 0.0
2018-Apr-20 10:58N 59°47' E 005°31'0 0.0
2018-Apr-20 10:28N 59°47' E 005°31'0 0.0
2018-Apr-20 09:58N 59°47' E 005°31'0 0.0
2018-Apr-20 09:28N 59°47' E 005°31'0 0.0
2018-Apr-20 08:58N 59°47' E 005°31'0 0.0
2018-Apr-20 08:25N 59°47' E 005°31'0 0.9
2018-Apr-20 08:00N 59°47' E 005°31'4 7.6
2018-Apr-20 07:30N 59°44' E 005°36'4 8.2
2018-Apr-20 07:00N 59°41' E 005°42'4 7.8
2018-Apr-20 06:30N 59°39' E 005°48'4 7.7
2018-Apr-20 06:00N 59°40' E 005°56'0 0.1
2018-Apr-20 05:29N 59°40' E 005°56'0 0.0
2018-Apr-20 04:59N 59°40' E 005°56'0 0.0
2018-Apr-20 04:29N 59°40' E 005°56'0 0.0
2018-Apr-20 03:59N 59°40' E 005°56'0 0.0
2018-Apr-20 03:29N 59°40' E 005°56'0 0.0
2018-Apr-20 02:59N 59°40' E 005°56'0 0.0
2018-Apr-20 02:29N 59°40' E 005°56'0 0.0
2018-Apr-20 01:59N 59°40' E 005°56'0 0.0
2018-Apr-20 01:26N 59°40' E 005°56'0 0.0
2018-Apr-20 00:59N 59°40' E 005°56'0 0.0
2018-Apr-20 00:29N 59°40' E 005°56'0 0.0
2018-Apr-19 23:59N 59°40' E 005°56'0 0.0
2018-Apr-19 23:29N 59°40' E 005°56'0 0.0
2018-Apr-19 22:59N 59°40' E 005°56'0 0.0
2018-Apr-19 22:29N 59°40' E 005°56'0 0.0
2018-Apr-19 21:59N 59°40' E 005°56'0 0.0
2018-Apr-19 21:30N 59°40' E 005°56'3 6.8
2018-Apr-19 21:00N 59°39' E 005°50'4 7.8
2018-Apr-19 20:30N 59°40' E 005°42'5 8.5
2018-Apr-19 19:59N 59°44' E 005°37'4 8.4
2018-Apr-19 19:30N 59°48' E 005°37'4 7.4
2018-Apr-19 19:00N 59°52' E 005°40'4 7.7
2018-Apr-19 18:30N 59°55' E 005°44'4 7.8
2018-Apr-19 18:00N 59°58' E 005°49'4 8.5
2018-Apr-19 17:30N 60°01' E 005°55'4 8.8
2018-Apr-19 16:59N 60°05' E 006°00'4 8.9
2018-Apr-19 16:30N 60°08' E 006°04'4 8.8
2018-Apr-19 16:00N 60°13' E 006°06'5 9.0
2018-Apr-19 15:30N 60°16' E 006°12'5 9.1
2018-Apr-19 15:00N 60°20' E 006°17'4 9.0
2018-Apr-19 14:30N 60°23' E 006°23'5 9.3
2018-Apr-19 13:59N 60°26' E 006°31'4 8.2
2018-Apr-19 13:30N 60°25' E 006°39'4 8.4
2018-Apr-19 13:00N 60°21' E 006°39'5 9.2
2018-Apr-19 12:30N 60°17' E 006°37'5 9.1
2018-Apr-19 12:00N 60°12' E 006°35'5 9.3
2018-Apr-19 11:30N 60°08' E 006°33'3 6.5
2018-Apr-19 11:00N 60°04' E 006°33'0 0.0
2018-Apr-19 10:28N 60°04' E 006°33'0 0.0
2018-Apr-19 09:58N 60°04' E 006°33'0 0.0
2018-Apr-19 09:28N 60°04' E 006°33'0 0.0
2018-Apr-19 08:58N 60°04' E 006°33'0 0.0
2018-Apr-19 08:28N 60°04' E 006°33'0 0.0
2018-Apr-19 07:58N 60°04' E 006°33'0 0.0
2018-Apr-19 07:28N 60°04' E 006°33'0 0.0
2018-Apr-19 06:58N 60°04' E 006°33'0 0.0
2018-Apr-19 06:28N 60°04' E 006°33'0 0.0
2018-Apr-19 05:58N 60°04' E 006°33'0 0.0
2018-Apr-19 05:28N 60°04' E 006°33'0 0.0
2018-Apr-19 04:59N 60°04' E 006°33'1 2.0
2018-Apr-19 04:30N 60°05' E 006°33'2 4.6
2018-Apr-19 04:00N 60°08' E 006°33'2 4.2
2018-Apr-19 03:30N 60°10' E 006°34'2 4.2
2018-Apr-19 03:00N 60°12' E 006°35'2 4.2
2018-Apr-19 02:30N 60°14' E 006°35'2 3.9
2018-Apr-19 02:00N 60°16' E 006°36'2 3.9
2018-Apr-19 01:30N 60°18' E 006°37'2 4.0
2018-Apr-19 00:59N 60°20' E 006°38'2 3.9
2018-Apr-19 00:30N 60°21' E 006°39'2 3.9
2018-Apr-19 00:00N 60°23' E 006°41'2 4.2
2018-Apr-18 23:30N 60°25' E 006°43'2 4.2
2018-Apr-18 22:59N 60°27' E 006°45'2 4.5
2018-Apr-18 22:30N 60°28' E 006°49'2 4.3
2018-Apr-18 22:00N 60°29' E 006°53'2 4.4
2018-Apr-18 21:30N 60°29' E 006°57'2 4.3
2018-Apr-18 21:00N 60°29' E 007°02'2 0.5
2018-Apr-18 17:10N 60°29' E 007°06'2 8.7
2018-Apr-18 17:00N 60°29' E 007°03'5 9.1
2018-Apr-18 16:30N 60°29' E 006°53'4 8.7
2018-Apr-18 15:59N 60°27' E 006°46'4 9.1
2018-Apr-18 15:30N 60°23' E 006°41'4 8.9
2018-Apr-18 15:00N 60°19' E 006°38'4 8.7
2018-Apr-18 14:30N 60°15' E 006°36'4 8.8
2018-Apr-18 14:00N 60°10' E 006°34'4 8.6
2018-Apr-18 13:29N 60°06' E 006°32'0 0.1
2018-Apr-18 13:00N 60°06' E 006°32'0 0.0
2018-Apr-18 12:30N 60°06' E 006°32'0 0.0
2018-Apr-18 12:00N 60°06' E 006°32'0 0.0
2018-Apr-18 11:30N 60°06' E 006°32'0 0.0
2018-Apr-18 11:00N 60°06' E 006°32'0 0.0
2018-Apr-18 10:30N 60°06' E 006°32'0 0.0
2018-Apr-18 10:00N 60°06' E 006°32'0 0.0
2018-Apr-18 09:30N 60°06' E 006°32'0 0.0
2018-Apr-18 09:00N 60°06' E 006°32'0 0.0
2018-Apr-18 08:30N 60°06' E 006°32'0 0.0
2018-Apr-18 08:00N 60°06' E 006°32'0 0.0
2018-Apr-18 07:30N 60°06' E 006°32'0 0.0
2018-Apr-18 07:00N 60°06' E 006°32'2 4.6
2018-Apr-18 06:29N 60°08' E 006°33'4 7.7
2018-Apr-18 06:00N 60°12' E 006°35'4 7.7
2018-Apr-18 05:29N 60°16' E 006°36'4 7.7
2018-Apr-18 05:00N 60°19' E 006°38'4 7.6
2018-Apr-18 04:30N 60°23' E 006°40'3 6.7
2018-Apr-18 04:00N 60°26' E 006°37'3 7.0
2018-Apr-18 03:31N 60°25' E 006°30'4 7.8
2018-Apr-18 03:00N 60°23' E 006°23'4 7.7
2018-Apr-18 02:28N 60°20' E 006°17'4 7.7
2018-Apr-18 02:01N 60°18' E 006°13'4 7.7
2018-Apr-18 01:30N 60°14' E 006°09'4 7.5
2018-Apr-18 01:00N 60°11' E 006°05'4 7.9
2018-Apr-18 00:30N 60°07' E 006°04'4 7.8
2018-Apr-18 00:00N 60°04' E 005°60'4 8.2
2018-Apr-17 23:30N 60°00' E 005°55'4 8.4
2018-Apr-17 22:59N 59°57' E 005°49'4 8.8
2018-Apr-17 22:30N 59°54' E 005°44'5 8.9
2018-Apr-17 22:00N 59°50' E 005°39'4 8.7
2018-Apr-17 21:29N 59°46' E 005°34'4 9.3
2018-Apr-17 21:00N 59°43' E 005°28'5 9.1
2018-Apr-17 20:30N 59°40' E 005°22'5 9.4
2018-Apr-17 20:00N 59°36' E 005°17'4 9.1
2018-Apr-17 19:31N 59°32' E 005°13'4 8.8
2018-Apr-17 19:00N 59°27' E 005°14'4 8.2
2018-Apr-17 18:30N 59°23' E 005°17'4 8.8
2018-Apr-17 18:00N 59°19' E 005°20'4 8.5
2018-Apr-17 17:30N 59°15' E 005°21'3 6.6
2018-Apr-17 16:59N 59°14' E 005°27'4 7.4
2018-Apr-17 16:30N 59°11' E 005°32'4 7.6
2018-Apr-17 16:01N 59°10' E 005°38'4 7.6
2018-Apr-17 15:30N 59°08' E 005°45'4 7.4
2018-Apr-17 15:00N 59°07' E 005°52'3 6.2
2018-Apr-17 14:30N 59°07' E 005°58'4 7.5
2018-Apr-17 14:00N 59°08' E 006°05'3 5.3
2018-Apr-17 13:30N 59°09' E 006°10'0 0.0
2018-Apr-17 13:00N 59°09' E 006°10'0 0.0
2018-Apr-17 12:26N 59°09' E 006°10'0 0.0
2018-Apr-17 12:00N 59°09' E 006°10'3 5.6
2018-Apr-17 11:30N 59°08' E 006°05'5 9.2
2018-Apr-17 11:00N 59°07' E 005°56'4 7.3
2018-Apr-17 10:30N 59°08' E 005°49'4 8.8
2018-Apr-17 10:00N 59°09' E 005°41'4 8.7
2018-Apr-17 09:30N 59°11' E 005°33'4 8.8
2018-Apr-17 09:00N 59°14' E 005°27'4 7.3
2018-Apr-17 08:30N 59°15' E 005°20'4 8.7
2018-Apr-17 08:00N 59°19' E 005°20'2 2.8
2018-Apr-17 07:28N 59°20' E 005°18'0 0.0
2018-Apr-17 06:58N 59°20' E 005°18'0 0.0
2018-Apr-17 06:28N 59°20' E 005°18'0 0.0
2018-Apr-17 05:58N 59°20' E 005°18'0 0.0
2018-Apr-17 05:28N 59°20' E 005°18'0 0.0
2018-Apr-17 04:58N 59°20' E 005°18'0 0.0
2018-Apr-17 04:28N 59°20' E 005°18'0 0.0
2018-Apr-17 03:58N 59°20' E 005°18'0 0.0
2018-Apr-17 03:28N 59°20' E 005°18'0 0.5
2018-Apr-17 03:00N 59°20' E 005°18'2 3.5
2018-Apr-17 02:30N 59°22' E 005°18'4 8.0
2018-Apr-17 02:00N 59°25' E 005°14'4 7.6
2018-Apr-17 01:29N 59°29' E 005°13'3 7.4
2018-Apr-17 01:00N 59°33' E 005°14'3 6.8
2018-Apr-17 00:30N 59°36' E 005°17'3 6.6
2018-Apr-17 00:00N 59°39' E 005°20'3 6.6
2018-Apr-16 23:30N 59°42' E 005°24'4 7.8
2018-Apr-16 23:00N 59°45' E 005°22'4 7.6
2018-Apr-16 22:30N 59°49' E 005°18'4 7.8
2018-Apr-16 22:00N 59°52' E 005°14'4 8.3
2018-Apr-16 21:30N 59°56' E 005°11'4 7.2
2018-Apr-16 21:00N 59°59' E 005°13'4 7.6
2018-Apr-16 20:30N 60°03' E 005°10'4 7.7
2018-Apr-16 20:00N 60°06' E 005°11'4 7.7
2018-Apr-16 19:30N 60°10' E 005°11'4 7.6
2018-Apr-16 19:00N 60°14' E 005°10'4 7.2
2018-Apr-16 18:30N 60°17' E 005°09'3 5.9
2018-Apr-16 18:00N 60°20' E 005°10'3 6.2
2018-Apr-16 17:29N 60°23' E 005°12'3 6.9
2018-Apr-16 16:59N 60°26' E 005°15'4 7.6
2018-Apr-16 16:30N 60°30' E 005°12'4 7.9
2018-Apr-16 16:00N 60°32' E 005°05'3 6.4
2018-Apr-16 15:30N 60°33' E 004°59'0 0.0
2018-Apr-16 15:00N 60°33' E 004°59'0 0.0
2018-Apr-16 14:30N 60°33' E 004°59'0 0.0
2018-Apr-16 14:00N 60°33' E 004°59'0 0.6
2018-Apr-16 13:30N 60°33' E 004°60'5 9.3
2018-Apr-16 13:00N 60°31' E 005°08'4 7.8
2018-Apr-16 12:30N 60°31' E 005°16'3 5.3
2018-Apr-16 11:56N 60°33' E 005°21'0 0.0
2018-Apr-16 11:29N 60°33' E 005°21'0 0.0
2018-Apr-16 10:58N 60°33' E 005°21'2 4.4
2018-Apr-16 10:30N 60°32' E 005°17'3 6.6
2018-Apr-16 10:00N 60°34' E 005°23'5 9.3
2018-Apr-16 09:30N 60°37' E 005°30'4 7.9
2018-Apr-16 08:59N 60°40' E 005°34'2 3.5
2018-Apr-16 08:30N 60°42' E 005°33'0 0.0
2018-Apr-16 07:45N 60°42' E 005°33'0 0.0
2018-Apr-16 07:30N 60°42' E 005°33'0 0.0
2018-Apr-16 07:00N 60°42' E 005°33'0 0.0
2018-Apr-16 06:30N 60°42' E 005°33'0 0.0
2018-Apr-16 05:57N 60°42' E 005°33'0 0.0
2018-Apr-16 04:54N 60°42' E 005°33'0 0.0
2018-Apr-16 03:24N 60°42' E 005°33'0 0.0
2018-Apr-16 02:36N 60°42' E 005°33'0 0.0
2018-Apr-16 02:09N 60°42' E 005°33'0 0.0
2018-Apr-16 01:54N 60°42' E 005°33'0 0.0
2018-Apr-16 01:03N 60°42' E 005°33'0 0.0
2018-Apr-16 00:51N 60°42' E 005°33'0 0.0
2018-Apr-16 00:21N 60°42' E 005°33'0 0.0
2018-Apr-15 23:42N 60°42' E 005°33'0 0.0
2018-Apr-15 23:24N 60°42' E 005°33'0 0.0
2018-Apr-15 22:42N 60°42' E 005°33'0 0.0
2018-Apr-15 22:27N 60°42' E 005°33'0 0.0
2018-Apr-15 22:00N 60°42' E 005°33'0 0.0
2018-Apr-15 21:18N 60°42' E 005°33'0 0.0
2018-Apr-15 21:00N 60°42' E 005°33'0 0.0
2018-Apr-15 19:21N 60°42' E 005°33'0 0.0
2018-Apr-15 18:51N 60°42' E 005°33'0 0.0
2018-Apr-15 18:09N 60°42' E 005°33'0 0.0
2018-Apr-15 18:00N 60°42' E 005°33'0 0.0
2018-Apr-15 17:30N 60°42' E 005°33'0 0.0
2018-Apr-15 17:00N 60°42' E 005°33'3 6.4
2018-Apr-15 16:29N 60°39' E 005°35'4 7.2
2018-Apr-15 16:00N 60°37' E 005°29'4 7.7
2018-Apr-15 15:30N 60°34' E 005°24'2 2.9
2018-Apr-15 14:58N 60°33' E 005°21'0 0.8
2018-Apr-15 14:30N 60°33' E 005°22'2 3.7
2018-Apr-15 13:56N 60°35' E 005°22'0 0.0
2018-Apr-15 13:29N 60°35' E 005°22'0 0.0
2018-Apr-15 12:56N 60°35' E 005°22'1 1.6
2018-Apr-15 12:30N 60°35' E 005°23'3 6.4
2018-Apr-15 12:00N 60°32' E 005°19'4 7.2
2018-Apr-15 11:30N 60°29' E 005°15'4 7.8
2018-Apr-15 11:00N 60°25' E 005°16'3 6.9
2018-Apr-15 10:30N 60°23' E 005°11'3 6.4
2018-Apr-15 10:00N 60°20' E 005°12'4 7.8
2018-Apr-15 09:30N 60°16' E 005°11'4 7.2
2018-Apr-15 09:00N 60°12' E 005°12'4 8.1
2018-Apr-15 08:30N 60°09' E 005°16'4 8.0
2018-Apr-15 08:00N 60°05' E 005°19'  

Dump ship's entire track history